Forside
METAR-TAF:

METAR-TAF

Lufthavne :

Alice Springs, Australien

Breddekreds: 23-48S, længdekreds: 133-53E, højde: 545 m

Aktuelle vejr

Denne rapport blev lavet for 22 minutter siden, kl. 21:30 UTC
Vind 5 kt fra nordvest
Temperatur 0°C
Fugtighed 93%
Tryk 1023 hPa
Sigt 10 km eller mere

METAR: YBAS 222130Z AUTO 31005KT 9999 // NCD 00/M01 Q1023 RF00.0/000.0

Tid: 07:22 (21:52 UTC)

Vejrudsigter

Denne rapport blev lavet for 4 timer og 22 minutter siden, kl. 17:30 UTC
Foreløbig gælder fra 22 på 18 UTC til 23 på 18 UTC
Vind 5 kt fra nordvest
Sigt 10 km eller mere
ingen skyer under 1500m og ingen cumulonimbus
Fra 23 på 0000 UTC
Vind 8 kt fra øst
Sigt 10 km eller mere
ingen skyer under 1500m og ingen cumulonimbus
Fra 23 på 0600 UTC
Vind 6 kt fra sydøst
Sigt 10 km eller mere
ingen skyer under 1500m og ingen cumulonimbus
Fra 23 på 1500 UTC
Vind 5 kt fra nordvest
Sigt 10 km eller mere
ingen skyer under 1500m og ingen cumulonimbus

TAF: YBAS 221730Z 2218/2318 31005KT CAVOK FM230000 10008KT CAVOK FM230600 14006KT CAVOK FM231500 31005KT CAVOK

Vejrobservationer og prognoser fra mere end 4000 lufthavne (METAR og TAF).

De gule og røde prikker repræsenterer de meteorologiske stationer.

Flyt musen over at se navnet på stationen.

Så klik over at se vejr observationer og prognoser.

At skifte det kort: Klik på de grønne knapper med et sort kors for at zoome ind; på den grønne knap med en bindestreg for at zoome ud; eller på de grønne pile for tilstødende kort.


METAR-TAF: